Fowler, Ohio
Current Conditions -  °F | °C
As of 3:51 AM on Sunday 26 Oct 2014 (Local Time) from KYNG Reporting Station
Clear Clear  
Wind Chill: 44°   Ceiling: Unl
Heat Index: 47°   Visibility: 10mi
Dew Point: 36°   Wind: 7mph
Humidity: 66%   Direction: 270°W
Pressure: 29.79"   Gusts: NA
Location:  41.31°N, 80.66°W
Report Text: KYNG 260751Z 27006KT 10SM CLR 08/02 A2979 RMK AO2 SLP086 T00830022 $
Loading
Personal Weather Stations






























Interactive Weather Map
Tropical Storm Tracking
New forecast layout! Learn more

10-Day Weather Forecast

Advertisements
Track Severe Weather on mobile